sensor_id;sensor_type;location;lat;lon;timestamp;P1;durP1;ratioP1;P2;durP2;ratioP2
50219;SDS011;36110;51.536;7.562;2023-05-14T00:00:45;3.05;;;2.83;;
50219;SDS011;36110;51.536;7.562;2023-05-14T00:03:11;3.22;;;3.03;;
50219;SDS011;36110;51.536;7.562;2023-05-14T00:05:36;3.58;;;3.28;;
50219;SDS011;36110;51.536;7.562;2023-05-14T00:08:02;3.63;;;3.33;;
50219;SDS011;36110;51.536;7.562;2023-05-14T00:10:27;3.53;;;3.22;;
50219;SDS011;36110;51.536;7.562;2023-05-14T00:15:25;3.70;;;3.40;;
50219;SDS011;36110;51.536;7.562;2023-05-14T00:17:50;3.65;;;3.35;;
50219;SDS011;36110;51.536;7.562;2023-05-14T00:20:15;3.40;;;3.20;;
50219;SDS011;36110;51.536;7.562;2023-05-14T00:22:41;4.18;;;3.20;;
50219;SDS011;36110;51.536;7.562;2023-05-14T00:25:06;4.90;;;3.30;;
50219;SDS011;36110;51.536;7.562;2023-05-14T00:29:59;3.40;;;3.13;;
50219;SDS011;36110;51.536;7.562;2023-05-14T00:32:24;4.00;;;3.28;;
50219;SDS011;36110;51.536;7.562;2023-05-14T00:34:50;10.60;;;8.57;;
50219;SDS011;36110;51.536;7.562;2023-05-14T00:37:15;7.88;;;6.18;;
50219;SDS011;36110;51.536;7.562;2023-05-14T00:39:41;4.65;;;4.25;;
50219;SDS011;36110;51.536;7.562;2023-05-14T00:42:06;4.25;;;3.90;;
50219;SDS011;36110;51.536;7.562;2023-05-14T00:44:31;4.45;;;4.05;;
50219;SDS011;36110;51.536;7.562;2023-05-14T00:46:57;4.32;;;3.92;;
50219;SDS011;36110;51.536;7.562;2023-05-14T00:49:23;3.70;;;3.40;;
50219;SDS011;36110;51.536;7.562;2023-05-14T00:51:48;4.03;;;3.63;;
50219;SDS011;36110;51.536;7.562;2023-05-14T00:54:14;3.28;;;3.08;;
50219;SDS011;36110;51.536;7.562;2023-05-14T00:56:41;4.10;;;3.78;;
50219;SDS011;36110;51.536;7.562;2023-05-14T00:59:07;4.00;;;3.53;;
50219;SDS011;36110;51.536;7.562;2023-05-14T01:01:32;3.60;;;3.33;;
50219;SDS011;36110;51.536;7.562;2023-05-14T01:03:58;3.70;;;3.47;;
50219;SDS011;36110;51.536;7.562;2023-05-14T01:06:29;4.10;;;3.70;;
50219;SDS011;36110;51.536;7.562;2023-05-14T01:09:16;4.15;;;3.55;;
50219;SDS011;36110;51.536;7.562;2023-05-14T01:14:45;3.80;;;3.50;;
50219;SDS011;36110;51.536;7.562;2023-05-14T01:17:12;3.30;;;3.10;;
50219;SDS011;36110;51.536;7.562;2023-05-14T01:19:40;5.00;;;3.38;;
50219;SDS011;36110;51.536;7.562;2023-05-14T01:22:06;10.80;;;8.27;;
50219;SDS011;36110;51.536;7.562;2023-05-14T01:24:32;3.88;;;3.58;;
50219;SDS011;36110;51.536;7.562;2023-05-14T01:27:00;3.65;;;3.35;;
50219;SDS011;36110;51.536;7.562;2023-05-14T01:29:42;4.22;;;3.47;;
50219;SDS011;36110;51.536;7.562;2023-05-14T01:32:12;3.63;;;3.33;;
50219;SDS011;36110;51.536;7.562;2023-05-14T01:34:38;3.88;;;3.58;;
50219;SDS011;36110;51.536;7.562;2023-05-14T01:37:03;3.63;;;3.35;;
50219;SDS011;36110;51.536;7.562;2023-05-14T01:39:29;3.80;;;3.50;;
50219;SDS011;36110;51.536;7.562;2023-05-14T01:41:56;4.32;;;3.60;;
50219;SDS011;36110;51.536;7.562;2023-05-14T01:44:21;11.45;;;8.45;;
50219;SDS011;36110;51.536;7.562;2023-05-14T01:46:47;5.53;;;4.88;;
50219;SDS011;36110;51.536;7.562;2023-05-14T01:49:12;3.88;;;3.58;;
50219;SDS011;36110;51.536;7.562;2023-05-14T01:51:38;3.67;;;3.38;;
50219;SDS011;36110;51.536;7.562;2023-05-14T01:54:03;3.88;;;3.58;;
50219;SDS011;36110;51.536;7.562;2023-05-14T01:56:28;11.38;;;10.18;;
50219;SDS011;36110;51.536;7.562;2023-05-14T01:58:54;4.00;;;3.70;;
50219;SDS011;36110;51.536;7.562;2023-05-14T02:01:20;4.10;;;3.80;;
50219;SDS011;36110;51.536;7.562;2023-05-14T02:03:46;3.78;;;3.47;;
50219;SDS011;36110;51.536;7.562;2023-05-14T02:06:11;3.67;;;3.38;;
50219;SDS011;36110;51.536;7.562;2023-05-14T02:08:37;3.70;;;3.40;;
50219;SDS011;36110;51.536;7.562;2023-05-14T02:11:02;4.05;;;3.58;;
50219;SDS011;36110;51.536;7.562;2023-05-14T02:13:27;4.05;;;3.75;;
50219;SDS011;36110;51.536;7.562;2023-05-14T02:15:53;3.67;;;3.38;;
50219;SDS011;36110;51.536;7.562;2023-05-14T02:18:18;3.97;;;3.67;;
50219;SDS011;36110;51.536;7.562;2023-05-14T02:20:43;5.57;;;5.07;;
50219;SDS011;36110;51.536;7.562;2023-05-14T02:23:09;3.88;;;3.58;;
50219;SDS011;36110;51.536;7.562;2023-05-14T02:25:34;4.25;;;3.50;;
50219;SDS011;36110;51.536;7.562;2023-05-14T02:28:00;3.72;;;3.42;;
50219;SDS011;36110;51.536;7.562;2023-05-14T02:30:25;3.75;;;3.45;;
50219;SDS011;36110;51.536;7.562;2023-05-14T02:32:50;3.65;;;3.33;;
50219;SDS011;36110;51.536;7.562;2023-05-14T02:35:15;4.32;;;3.30;;
50219;SDS011;36110;51.536;7.562;2023-05-14T02:37:41;3.70;;;3.40;;
50219;SDS011;36110;51.536;7.562;2023-05-14T02:40:06;4.00;;;3.60;;
50219;SDS011;36110;51.536;7.562;2023-05-14T02:42:33;4.28;;;3.88;;
50219;SDS011;36110;51.536;7.562;2023-05-14T02:44:58;3.95;;;3.65;;
50219;SDS011;36110;51.536;7.562;2023-05-14T02:47:24;3.70;;;3.40;;
50219;SDS011;36110;51.536;7.562;2023-05-14T02:49:49;3.97;;;3.67;;
50219;SDS011;36110;51.536;7.562;2023-05-14T02:52:15;4.38;;;3.97;;
50219;SDS011;36110;51.536;7.562;2023-05-14T02:54:40;3.70;;;3.40;;
50219;SDS011;36110;51.536;7.562;2023-05-14T02:57:05;3.90;;;3.60;;
50219;SDS011;36110;51.536;7.562;2023-05-14T02:59:31;3.72;;;3.53;;
50219;SDS011;36110;51.536;7.562;2023-05-14T03:01:56;4.05;;;3.75;;
50219;SDS011;36110;51.536;7.562;2023-05-14T03:04:21;3.55;;;3.25;;
50219;SDS011;36110;51.536;7.562;2023-05-14T03:06:47;3.92;;;3.63;;
50219;SDS011;36110;51.536;7.562;2023-05-14T03:09:12;4.80;;;3.47;;
50219;SDS011;36110;51.536;7.562;2023-05-14T03:11:38;4.03;;;3.67;;
50219;SDS011;36110;51.536;7.562;2023-05-14T03:14:03;3.90;;;3.60;;
50219;SDS011;36110;51.536;7.562;2023-05-14T03:16:29;3.70;;;3.40;;
50219;SDS011;36110;51.536;7.562;2023-05-14T03:18:54;3.90;;;3.30;;
50219;SDS011;36110;51.536;7.562;2023-05-14T03:21:19;3.72;;;3.42;;
50219;SDS011;36110;51.536;7.562;2023-05-14T03:23:45;3.83;;;3.53;;
50219;SDS011;36110;51.536;7.562;2023-05-14T03:26:10;3.80;;;3.50;;
50219;SDS011;36110;51.536;7.562;2023-05-14T03:28:35;4.15;;;3.72;;
50219;SDS011;36110;51.536;7.562;2023-05-14T03:31:00;4.22;;;3.83;;
50219;SDS011;36110;51.536;7.562;2023-05-14T03:33:26;3.80;;;3.50;;
50219;SDS011;36110;51.536;7.562;2023-05-14T03:35:51;4.10;;;3.70;;
50219;SDS011;36110;51.536;7.562;2023-05-14T03:38:17;3.92;;;3.53;;
50219;SDS011;36110;51.536;7.562;2023-05-14T03:40:43;3.85;;;3.53;;
50219;SDS011;36110;51.536;7.562;2023-05-14T03:43:08;4.18;;;3.70;;
50219;SDS011;36110;51.536;7.562;2023-05-14T03:45:34;3.63;;;3.33;;
50219;SDS011;36110;51.536;7.562;2023-05-14T03:47:59;4.00;;;3.60;;
50219;SDS011;36110;51.536;7.562;2023-05-14T03:50:24;3.70;;;3.40;;
50219;SDS011;36110;51.536;7.562;2023-05-14T03:52:50;3.72;;;3.42;;
50219;SDS011;36110;51.536;7.562;2023-05-14T03:55:17;3.80;;;3.50;;
50219;SDS011;36110;51.536;7.562;2023-05-14T03:57:43;3.83;;;3.53;;
50219;SDS011;36110;51.536;7.562;2023-05-14T04:00:08;4.10;;;3.80;;
50219;SDS011;36110;51.536;7.562;2023-05-14T04:02:34;3.88;;;3.58;;
50219;SDS011;36110;51.536;7.562;2023-05-14T04:05:00;3.83;;;3.53;;
50219;SDS011;36110;51.536;7.562;2023-05-14T04:07:25;3.80;;;3.50;;
50219;SDS011;36110;51.536;7.562;2023-05-14T04:09:50;3.88;;;3.58;;
50219;SDS011;36110;51.536;7.562;2023-05-14T04:12:16;3.92;;;3.53;;
50219;SDS011;36110;51.536;7.562;2023-05-14T04:14:41;4.20;;;3.80;;
50219;SDS011;36110;51.536;7.562;2023-05-14T04:17:06;4.05;;;3.75;;
50219;SDS011;36110;51.536;7.562;2023-05-14T04:19:32;3.72;;;3.42;;
50219;SDS011;36110;51.536;7.562;2023-05-14T04:21:57;3.47;;;3.22;;
50219;SDS011;36110;51.536;7.562;2023-05-14T04:24:22;5.45;;;3.63;;
50219;SDS011;36110;51.536;7.562;2023-05-14T04:26:48;3.85;;;3.55;;
50219;SDS011;36110;51.536;7.562;2023-05-14T04:29:13;3.92;;;3.63;;
50219;SDS011;36110;51.536;7.562;2023-05-14T04:31:38;4.70;;;3.45;;
50219;SDS011;36110;51.536;7.562;2023-05-14T04:34:04;3.95;;;3.65;;
50219;SDS011;36110;51.536;7.562;2023-05-14T04:36:29;3.78;;;3.47;;
50219;SDS011;36110;51.536;7.562;2023-05-14T04:38:55;3.88;;;3.58;;
50219;SDS011;36110;51.536;7.562;2023-05-14T04:41:20;4.82;;;4.38;;
50219;SDS011;36110;51.536;7.562;2023-05-14T04:43:45;5.20;;;4.75;;
50219;SDS011;36110;51.536;7.562;2023-05-14T04:46:13;11.18;;;9.85;;
50219;SDS011;36110;51.536;7.562;2023-05-14T04:48:39;6.03;;;5.38;;
50219;SDS011;36110;51.536;7.562;2023-05-14T04:51:04;3.67;;;3.38;;
50219;SDS011;36110;51.536;7.562;2023-05-14T04:53:30;3.60;;;3.30;;
50219;SDS011;36110;51.536;7.562;2023-05-14T04:55:55;6.22;;;4.88;;
50219;SDS011;36110;51.536;7.562;2023-05-14T04:58:20;10.65;;;9.57;;
50219;SDS011;36110;51.536;7.562;2023-05-14T05:00:47;10.95;;;9.90;;
50219;SDS011;36110;51.536;7.562;2023-05-14T05:03:12;12.23;;;8.68;;
50219;SDS011;36110;51.536;7.562;2023-05-14T05:05:38;9.13;;;7.85;;
50219;SDS011;36110;51.536;7.562;2023-05-14T05:08:03;9.55;;;8.45;;
50219;SDS011;36110;51.536;7.562;2023-05-14T05:10:28;9.57;;;7.97;;
50219;SDS011;36110;51.536;7.562;2023-05-14T05:12:54;3.38;;;3.15;;
50219;SDS011;36110;51.536;7.562;2023-05-14T05:15:19;3.20;;;2.92;;
50219;SDS011;36110;51.536;7.562;2023-05-14T05:17:44;3.30;;;3.00;;
50219;SDS011;36110;51.536;7.562;2023-05-14T05:20:10;5.72;;;4.68;;
50219;SDS011;36110;51.536;7.562;2023-05-14T05:22:36;3.15;;;2.90;;
50219;SDS011;36110;51.536;7.562;2023-05-14T05:25:01;3.00;;;2.80;;
50219;SDS011;36110;51.536;7.562;2023-05-14T05:27:30;3.20;;;3.00;;
50219;SDS011;36110;51.536;7.562;2023-05-14T05:29:55;5.20;;;4.55;;
50219;SDS011;36110;51.536;7.562;2023-05-14T05:32:21;3.00;;;2.70;;
50219;SDS011;36110;51.536;7.562;2023-05-14T05:34:47;2.90;;;2.70;;
50219;SDS011;36110;51.536;7.562;2023-05-14T05:37:12;8.05;;;6.90;;
50219;SDS011;36110;51.536;7.562;2023-05-14T05:39:38;8.13;;;6.50;;
50219;SDS011;36110;51.536;7.562;2023-05-14T05:42:04;4.15;;;3.25;;
50219;SDS011;36110;51.536;7.562;2023-05-14T05:44:30;3.20;;;3.00;;
50219;SDS011;36110;51.536;7.562;2023-05-14T05:46:55;5.55;;;3.28;;
50219;SDS011;36110;51.536;7.562;2023-05-14T05:49:21;3.30;;;3.03;;
50219;SDS011;36110;51.536;7.562;2023-05-14T05:51:47;3.17;;;2.97;;
50219;SDS011;36110;51.536;7.562;2023-05-14T05:54:12;4.18;;;3.20;;
50219;SDS011;36110;51.536;7.562;2023-05-14T05:56:38;3.50;;;3.10;;
50219;SDS011;36110;51.536;7.562;2023-05-14T05:59:03;4.35;;;3.55;;
50219;SDS011;36110;51.536;7.562;2023-05-14T06:01:28;3.50;;;3.30;;
50219;SDS011;36110;51.536;7.562;2023-05-14T06:03:53;3.25;;;3.05;;
50219;SDS011;36110;51.536;7.562;2023-05-14T06:06:19;3.47;;;3.17;;
50219;SDS011;36110;51.536;7.562;2023-05-14T06:08:45;2.95;;;2.70;;
50219;SDS011;36110;51.536;7.562;2023-05-14T06:11:10;6.05;;;5.45;;
50219;SDS011;36110;51.536;7.562;2023-05-14T06:13:36;6.55;;;5.95;;
50219;SDS011;36110;51.536;7.562;2023-05-14T06:16:02;5.85;;;5.25;;
50219;SDS011;36110;51.536;7.562;2023-05-14T06:18:27;11.25;;;7.60;;
50219;SDS011;36110;51.536;7.562;2023-05-14T06:20:52;3.28;;;3.00;;
50219;SDS011;36110;51.536;7.562;2023-05-14T06:23:18;5.22;;;4.78;;
50219;SDS011;36110;51.536;7.562;2023-05-14T06:25:43;9.70;;;7.00;;
50219;SDS011;36110;51.536;7.562;2023-05-14T06:28:08;6.97;;;6.35;;
50219;SDS011;36110;51.536;7.562;2023-05-14T06:30:33;9.55;;;7.68;;
50219;SDS011;36110;51.536;7.562;2023-05-14T06:32:59;9.00;;;7.40;;
50219;SDS011;36110;51.536;7.562;2023-05-14T06:35:24;3.83;;;3.50;;
50219;SDS011;36110;51.536;7.562;2023-05-14T06:37:49;3.20;;;3.00;;
50219;SDS011;36110;51.536;7.562;2023-05-14T06:40:15;8.88;;;8.05;;
50219;SDS011;36110;51.536;7.562;2023-05-14T06:42:40;3.58;;;2.70;;
50219;SDS011;36110;51.536;7.562;2023-05-14T06:45:06;9.18;;;6.97;;
50219;SDS011;36110;51.536;7.562;2023-05-14T06:47:32;9.27;;;6.72;;
50219;SDS011;36110;51.536;7.562;2023-05-14T06:49:57;5.65;;;5.10;;
50219;SDS011;36110;51.536;7.562;2023-05-14T06:52:23;3.13;;;2.92;;
50219;SDS011;36110;51.536;7.562;2023-05-14T06:54:49;3.05;;;2.83;;
50219;SDS011;36110;51.536;7.562;2023-05-14T06:57:15;5.32;;;4.82;;
50219;SDS011;36110;51.536;7.562;2023-05-14T06:59:40;4.63;;;4.22;;
50219;SDS011;36110;51.536;7.562;2023-05-14T07:02:05;2.60;;;2.40;;
50219;SDS011;36110;51.536;7.562;2023-05-14T07:04:31;7.43;;;6.13;;
50219;SDS011;36110;51.536;7.562;2023-05-14T07:06:56;2.97;;;2.78;;
50219;SDS011;36110;51.536;7.562;2023-05-14T07:09:21;8.95;;;7.68;;
50219;SDS011;36110;51.536;7.562;2023-05-14T07:11:47;17.45;;;8.05;;
50219;SDS011;36110;51.536;7.562;2023-05-14T07:14:12;8.05;;;7.25;;
50219;SDS011;36110;51.536;7.562;2023-05-14T07:16:37;10.48;;;6.72;;
50219;SDS011;36110;51.536;7.562;2023-05-14T07:19:03;9.13;;;6.53;;
50219;SDS011;36110;51.536;7.562;2023-05-14T07:21:28;7.53;;;6.82;;
50219;SDS011;36110;51.536;7.562;2023-05-14T07:23:53;4.35;;;3.95;;
50219;SDS011;36110;51.536;7.562;2023-05-14T07:26:19;10.80;;;6.60;;
50219;SDS011;36110;51.536;7.562;2023-05-14T07:28:45;8.82;;;6.90;;
50219;SDS011;36110;51.536;7.562;2023-05-14T07:31:10;3.10;;;2.90;;
50219;SDS011;36110;51.536;7.562;2023-05-14T07:33:35;8.32;;;6.30;;
50219;SDS011;36110;51.536;7.562;2023-05-14T07:36:02;7.05;;;5.80;;
50219;SDS011;36110;51.536;7.562;2023-05-14T07:38:27;4.00;;;2.90;;
50219;SDS011;36110;51.536;7.562;2023-05-14T07:40:53;3.03;;;2.80;;
50219;SDS011;36110;51.536;7.562;2023-05-14T07:43:18;5.22;;;3.72;;
50219;SDS011;36110;51.536;7.562;2023-05-14T07:45:44;2.60;;;2.40;;
50219;SDS011;36110;51.536;7.562;2023-05-14T07:48:09;3.00;;;2.80;;
50219;SDS011;36110;51.536;7.562;2023-05-14T07:50:35;5.85;;;5.20;;
50219;SDS011;36110;51.536;7.562;2023-05-14T07:53:01;6.43;;;5.22;;
50219;SDS011;36110;51.536;7.562;2023-05-14T07:55:26;4.78;;;3.60;;
50219;SDS011;36110;51.536;7.562;2023-05-14T07:57:52;2.80;;;2.60;;
50219;SDS011;36110;51.536;7.562;2023-05-14T08:00:17;8.15;;;5.38;;
50219;SDS011;36110;51.536;7.562;2023-05-14T08:02:42;8.82;;;4.18;;
50219;SDS011;36110;51.536;7.562;2023-05-14T08:05:08;4.78;;;4.15;;
50219;SDS011;36110;51.536;7.562;2023-05-14T08:07:34;5.18;;;3.67;;
50219;SDS011;36110;51.536;7.562;2023-05-14T08:09:59;4.20;;;3.80;;
50219;SDS011;36110;51.536;7.562;2023-05-14T08:12:25;3.63;;;3.33;;
50219;SDS011;36110;51.536;7.562;2023-05-14T08:14:50;2.80;;;2.60;;
50219;SDS011;36110;51.536;7.562;2023-05-14T08:17:17;4.50;;;4.03;;
50219;SDS011;36110;51.536;7.562;2023-05-14T08:19:42;4.25;;;3.90;;
50219;SDS011;36110;51.536;7.562;2023-05-14T08:22:08;2.80;;;2.53;;
50219;SDS011;36110;51.536;7.562;2023-05-14T08:24:33;3.47;;;3.17;;
50219;SDS011;36110;51.536;7.562;2023-05-14T08:26:58;7.00;;;3.50;;
50219;SDS011;36110;51.536;7.562;2023-05-14T08:29:24;4.22;;;3.28;;
50219;SDS011;36110;51.536;7.562;2023-05-14T08:31:49;5.18;;;3.85;;
50219;SDS011;36110;51.536;7.562;2023-05-14T08:34:15;4.68;;;3.63;;
50219;SDS011;36110;51.536;7.562;2023-05-14T08:36:40;3.70;;;3.40;;
50219;SDS011;36110;51.536;7.562;2023-05-14T08:39:06;2.75;;;2.55;;
50219;SDS011;36110;51.536;7.562;2023-05-14T08:41:34;3.00;;;2.70;;
50219;SDS011;36110;51.536;7.562;2023-05-14T08:46:38;3.60;;;3.30;;
50219;SDS011;36110;51.536;7.562;2023-05-14T08:49:05;4.07;;;3.67;;
50219;SDS011;36110;51.536;7.562;2023-05-14T08:51:35;4.35;;;3.35;;
50219;SDS011;36110;51.536;7.562;2023-05-14T08:54:01;5.22;;;2.40;;
50219;SDS011;36110;51.536;7.562;2023-05-14T08:56:26;2.60;;;2.40;;
50219;SDS011;36110;51.536;7.562;2023-05-14T08:58:52;2.95;;;2.65;;
50219;SDS011;36110;51.536;7.562;2023-05-14T09:01:17;3.05;;;2.50;;
50219;SDS011;36110;51.536;7.562;2023-05-14T09:03:43;2.80;;;2.60;;
50219;SDS011;36110;51.536;7.562;2023-05-14T09:06:09;2.78;;;2.58;;
50219;SDS011;36110;51.536;7.562;2023-05-14T09:08:35;3.17;;;2.40;;
50219;SDS011;36110;51.536;7.562;2023-05-14T09:11:00;4.03;;;2.03;;
50219;SDS011;36110;51.536;7.562;2023-05-14T09:13:26;2.70;;;2.08;;
50219;SDS011;36110;51.536;7.562;2023-05-14T09:15:51;2.55;;;2.30;;
50219;SDS011;36110;51.536;7.562;2023-05-14T09:18:17;2.15;;;1.95;;
50219;SDS011;36110;51.536;7.562;2023-05-14T09:20:42;3.03;;;2.60;;
50219;SDS011;36110;51.536;7.562;2023-05-14T09:23:07;9.00;;;4.38;;
50219;SDS011;36110;51.536;7.562;2023-05-14T09:25:33;2.60;;;2.40;;
50219;SDS011;36110;51.536;7.562;2023-05-14T09:27:58;2.30;;;2.10;;
50219;SDS011;36110;51.536;7.562;2023-05-14T09:30:24;2.45;;;2.17;;
50219;SDS011;36110;51.536;7.562;2023-05-14T09:32:51;2.67;;;2.42;;
50219;SDS011;36110;51.536;7.562;2023-05-14T09:35:18;4.80;;;2.10;;
50219;SDS011;36110;51.536;7.562;2023-05-14T09:37:46;2.67;;;2.47;;
50219;SDS011;36110;51.536;7.562;2023-05-14T09:40:13;2.40;;;2.20;;
50219;SDS011;36110;51.536;7.562;2023-05-14T09:42:39;2.08;;;1.98;;
50219;SDS011;36110;51.536;7.562;2023-05-14T09:45:06;2.50;;;2.30;;
50219;SDS011;36110;51.536;7.562;2023-05-14T09:47:32;3.70;;;2.17;;
50219;SDS011;36110;51.536;7.562;2023-05-14T09:49:57;2.67;;;2.47;;
50219;SDS011;36110;51.536;7.562;2023-05-14T09:52:23;4.78;;;2.70;;
50219;SDS011;36110;51.536;7.562;2023-05-14T09:54:49;2.55;;;2.35;;
50219;SDS011;36110;51.536;7.562;2023-05-14T09:57:19;2.33;;;2.20;;
50219;SDS011;36110;51.536;7.562;2023-05-14T09:59:44;2.47;;;2.28;;
50219;SDS011;36110;51.536;7.562;2023-05-14T10:02:52;2.40;;;2.20;;
50219;SDS011;36110;51.536;7.562;2023-05-14T10:05:01;2.97;;;2.22;;
50219;SDS011;36110;51.536;7.562;2023-05-14T10:07:30;2.50;;;2.30;;
50219;SDS011;36110;51.536;7.562;2023-05-14T10:10:00;4.25;;;2.60;;
50219;SDS011;36110;51.536;7.562;2023-05-14T10:12:28;4.88;;;3.53;;
50219;SDS011;36110;51.536;7.562;2023-05-14T10:14:55;2.35;;;2.13;;
50219;SDS011;36110;51.536;7.562;2023-05-14T10:17:21;4.93;;;1.95;;
50219;SDS011;36110;51.536;7.562;2023-05-14T10:19:52;2.38;;;2.17;;
50219;SDS011;36110;51.536;7.562;2023-05-14T10:22:21;2.47;;;2.30;;
50219;SDS011;36110;51.536;7.562;2023-05-14T10:24:47;5.35;;;2.33;;
50219;SDS011;36110;51.536;7.562;2023-05-14T10:27:17;2.50;;;2.30;;
50219;SDS011;36110;51.536;7.562;2023-05-14T10:29:47;2.55;;;2.35;;
50219;SDS011;36110;51.536;7.562;2023-05-14T10:32:17;2.30;;;2.10;;
50219;SDS011;36110;51.536;7.562;2023-05-14T10:34:44;2.47;;;2.20;;
50219;SDS011;36110;51.536;7.562;2023-05-14T10:37:14;2.60;;;2.40;;
50219;SDS011;36110;51.536;7.562;2023-05-14T10:39:46;2.53;;;2.33;;
50219;SDS011;36110;51.536;7.562;2023-05-14T10:42:15;4.38;;;2.10;;
50219;SDS011;36110;51.536;7.562;2023-05-14T10:44:51;2.30;;;2.10;;
50219;SDS011;36110;51.536;7.562;2023-05-14T10:47:25;2.28;;;1.88;;
50219;SDS011;36110;51.536;7.562;2023-05-14T10:49:57;3.50;;;1.73;;
50219;SDS011;36110;51.536;7.562;2023-05-14T10:52:24;2.15;;;2.05;;
50219;SDS011;36110;51.536;7.562;2023-05-14T10:54:53;2.40;;;2.20;;
50219;SDS011;36110;51.536;7.562;2023-05-14T10:57:21;2.40;;;2.20;;
50219;SDS011;36110;51.536;7.562;2023-05-14T10:59:51;2.33;;;2.20;;
50219;SDS011;36110;51.536;7.562;2023-05-14T11:02:25;2.40;;;2.22;;
50219;SDS011;36110;51.536;7.562;2023-05-14T11:05:02;2.45;;;2.15;;
50219;SDS011;36110;51.536;7.562;2023-05-14T11:07:34;2.35;;;2.20;;
50219;SDS011;36110;51.536;7.562;2023-05-14T11:10:06;2.30;;;2.20;;
50219;SDS011;36110;51.536;7.562;2023-05-14T11:12:33;2.20;;;2.10;;
50219;SDS011;36110;51.536;7.562;2023-05-14T11:15:00;2.25;;;2.05;;
50219;SDS011;36110;51.536;7.562;2023-05-14T11:17:28;2.15;;;2.03;;
50219;SDS011;36110;51.536;7.562;2023-05-14T11:19:54;2.15;;;1.95;;
50219;SDS011;36110;51.536;7.562;2023-05-14T11:22:20;2.33;;;2.22;;
50219;SDS011;36110;51.536;7.562;2023-05-14T11:24:45;1.95;;;1.75;;
50219;SDS011;36110;51.536;7.562;2023-05-14T11:27:11;2.20;;;2.00;;
50219;SDS011;36110;51.536;7.562;2023-05-14T11:29:37;2.20;;;2.10;;
50219;SDS011;36110;51.536;7.562;2023-05-14T11:32:05;2.40;;;1.90;;
50219;SDS011;36110;51.536;7.562;2023-05-14T11:34:31;3.13;;;2.20;;
50219;SDS011;36110;51.536;7.562;2023-05-14T11:36:58;2.60;;;2.40;;
50219;SDS011;36110;51.536;7.562;2023-05-14T11:39:26;2.33;;;2.20;;
50219;SDS011;36110;51.536;7.562;2023-05-14T11:41:52;2.65;;;2.30;;
50219;SDS011;36110;51.536;7.562;2023-05-14T11:44:17;2.30;;;2.10;;
50219;SDS011;36110;51.536;7.562;2023-05-14T11:46:52;3.22;;;2.38;;
50219;SDS011;36110;51.536;7.562;2023-05-14T11:49:23;5.38;;;2.70;;
50219;SDS011;36110;51.536;7.562;2023-05-14T11:51:50;3.22;;;2.72;;
50219;SDS011;36110;51.536;7.562;2023-05-14T11:54:21;1.85;;;1.75;;
50219;SDS011;36110;51.536;7.562;2023-05-14T11:56:50;3.63;;;2.15;;
50219;SDS011;36110;51.536;7.562;2023-05-14T11:59:15;2.40;;;2.20;;
50219;SDS011;36110;51.536;7.562;2023-05-14T12:01:42;3.45;;;2.58;;
50219;SDS011;36110;51.536;7.562;2023-05-14T12:04:09;2.70;;;2.50;;
50219;SDS011;36110;51.536;7.562;2023-05-14T12:06:34;1.90;;;1.80;;
50219;SDS011;36110;51.536;7.562;2023-05-14T12:09:00;2.60;;;2.40;;
50219;SDS011;36110;51.536;7.562;2023-05-14T12:11:29;2.30;;;2.10;;
50219;SDS011;36110;51.536;7.562;2023-05-14T12:13:56;2.50;;;1.95;;
50219;SDS011;36110;51.536;7.562;2023-05-14T12:16:21;2.10;;;2.00;;
50219;SDS011;36110;51.536;7.562;2023-05-14T12:18:47;1.90;;;1.80;;
50219;SDS011;36110;51.536;7.562;2023-05-14T12:21:12;1.98;;;1.70;;
50219;SDS011;36110;51.536;7.562;2023-05-14T12:23:37;2.55;;;2.35;;
50219;SDS011;36110;51.536;7.562;2023-05-14T12:26:04;1.90;;;1.80;;
50219;SDS011;36110;51.536;7.562;2023-05-14T12:28:31;2.90;;;2.00;;
50219;SDS011;36110;51.536;7.562;2023-05-14T12:30:57;1.92;;;1.83;;
50219;SDS011;36110;51.536;7.562;2023-05-14T12:33:23;2.97;;;2.53;;
50219;SDS011;36110;51.536;7.562;2023-05-14T12:35:50;2.10;;;2.00;;
50219;SDS011;36110;51.536;7.562;2023-05-14T12:38:17;2.17;;;2.08;;
50219;SDS011;36110;51.536;7.562;2023-05-14T12:40:43;2.20;;;1.50;;
50219;SDS011;36110;51.536;7.562;2023-05-14T12:43:08;2.25;;;2.05;;
50219;SDS011;36110;51.536;7.562;2023-05-14T12:45:33;2.97;;;2.78;;
50219;SDS011;36110;51.536;7.562;2023-05-14T12:47:59;2.90;;;2.13;;
50219;SDS011;36110;51.536;7.562;2023-05-14T12:50:24;1.80;;;1.70;;
50219;SDS011;36110;51.536;7.562;2023-05-14T12:52:50;1.60;;;1.50;;
50219;SDS011;36110;51.536;7.562;2023-05-14T12:55:15;2.42;;;2.22;;
50219;SDS011;36110;51.536;7.562;2023-05-14T12:57:40;2.30;;;2.10;;
50219;SDS011;36110;51.536;7.562;2023-05-14T13:00:06;2.33;;;2.22;;
50219;SDS011;36110;51.536;7.562;2023-05-14T13:02:34;2.30;;;2.10;;
50219;SDS011;36110;51.536;7.562;2023-05-14T13:04:59;2.53;;;2.33;;
50219;SDS011;36110;51.536;7.562;2023-05-14T13:07:27;1.48;;;1.40;;
50219;SDS011;36110;51.536;7.562;2023-05-14T13:09:54;2.63;;;1.58;;
50219;SDS011;36110;51.536;7.562;2023-05-14T13:12:19;2.05;;;1.90;;
50219;SDS011;36110;51.536;7.562;2023-05-14T13:14:45;1.83;;;1.70;;
50219;SDS011;36110;51.536;7.562;2023-05-14T13:17:10;1.85;;;1.50;;
50219;SDS011;36110;51.536;7.562;2023-05-14T13:19:35;2.28;;;1.90;;
50219;SDS011;36110;51.536;7.562;2023-05-14T13:22:01;1.80;;;1.70;;
50219;SDS011;36110;51.536;7.562;2023-05-14T13:24:26;2.47;;;2.28;;
50219;SDS011;36110;51.536;7.562;2023-05-14T13:26:51;1.90;;;1.80;;
50219;SDS011;36110;51.536;7.562;2023-05-14T13:29:17;2.30;;;2.10;;
50219;SDS011;36110;51.536;7.562;2023-05-14T13:31:42;2.45;;;2.13;;
50219;SDS011;36110;51.536;7.562;2023-05-14T13:34:07;2.05;;;1.90;;
50219;SDS011;36110;51.536;7.562;2023-05-14T13:36:34;2.53;;;2.30;;
50219;SDS011;36110;51.536;7.562;2023-05-14T13:39:03;2.63;;;2.42;;
50219;SDS011;36110;51.536;7.562;2023-05-14T13:41:29;1.83;;;1.70;;
50219;SDS011;36110;51.536;7.562;2023-05-14T13:43:56;2.35;;;1.92;;
50219;SDS011;36110;51.536;7.562;2023-05-14T13:46:21;2.60;;;1.80;;
50219;SDS011;36110;51.536;7.562;2023-05-14T13:48:46;1.95;;;1.85;;
50219;SDS011;36110;51.536;7.562;2023-05-14T13:51:12;2.25;;;2.00;;
50219;SDS011;36110;51.536;7.562;2023-05-14T13:53:37;2.58;;;2.05;;
50219;SDS011;36110;51.536;7.562;2023-05-14T13:56:02;2.42;;;2.33;;
50219;SDS011;36110;51.536;7.562;2023-05-14T13:58:30;1.77;;;1.52;;
50219;SDS011;36110;51.536;7.562;2023-05-14T14:00:55;2.05;;;1.95;;
50219;SDS011;36110;51.536;7.562;2023-05-14T14:03:21;3.80;;;1.60;;
50219;SDS011;36110;51.536;7.562;2023-05-14T14:05:46;2.20;;;2.10;;
50219;SDS011;36110;51.536;7.562;2023-05-14T14:08:11;2.70;;;2.45;;
50219;SDS011;36110;51.536;7.562;2023-05-14T14:10:37;2.50;;;2.30;;
50219;SDS011;36110;51.536;7.562;2023-05-14T14:13:05;1.60;;;1.50;;
50219;SDS011;36110;51.536;7.562;2023-05-14T14:15:30;1.75;;;1.65;;
50219;SDS011;36110;51.536;7.562;2023-05-14T14:17:56;3.17;;;1.83;;
50219;SDS011;36110;51.536;7.562;2023-05-14T14:20:21;1.60;;;1.50;;
50219;SDS011;36110;51.536;7.562;2023-05-14T14:22:46;4.68;;;1.60;;
50219;SDS011;36110;51.536;7.562;2023-05-14T14:25:12;1.50;;;1.40;;
50219;SDS011;36110;51.536;7.562;2023-05-14T14:27:38;1.40;;;1.30;;
50219;SDS011;36110;51.536;7.562;2023-05-14T14:30:05;1.88;;;1.77;;
50219;SDS011;36110;51.536;7.562;2023-05-14T14:32:33;2.60;;;2.40;;
50219;SDS011;36110;51.536;7.562;2023-05-14T14:34:59;1.48;;;1.38;;
50219;SDS011;36110;51.536;7.562;2023-05-14T14:37:24;1.20;;;1.20;;
50219;SDS011;36110;51.536;7.562;2023-05-14T14:39:50;1.98;;;1.77;;
50219;SDS011;36110;51.536;7.562;2023-05-14T14:42:15;1.60;;;1.50;;
50219;SDS011;36110;51.536;7.562;2023-05-14T14:44:40;1.50;;;1.40;;
50219;SDS011;36110;51.536;7.562;2023-05-14T14:47:05;2.50;;;1.45;;
50219;SDS011;36110;51.536;7.562;2023-05-14T14:49:31;1.55;;;1.45;;
50219;SDS011;36110;51.536;7.562;2023-05-14T14:51:56;1.40;;;1.30;;